createdAt,value
2019-04-21T00:01:37.688Z,18.47
2019-04-21T00:04:11.327Z,16.57
2019-04-21T00:06:51.101Z,17.07
2019-04-21T00:09:19.295Z,16.70
2019-04-21T00:11:47.038Z,17.53
2019-04-21T00:14:05.611Z,17.83
2019-04-21T00:16:32.067Z,17.73
2019-04-21T00:19:12.798Z,16.50
2019-04-21T00:21:40.398Z,18.07
2019-04-21T00:24:24.020Z,17.23
2019-04-21T00:26:57.416Z,16.63
2019-04-21T00:29:33.015Z,17.40
2019-04-21T00:31:45.764Z,16.87
2019-04-21T00:34:00.444Z,17.07
2019-04-21T00:36:38.430Z,16.77
2019-04-21T00:39:31.684Z,16.50
2019-04-21T00:41:43.923Z,16.50
2019-04-21T00:44:07.071Z,16.03
2019-04-21T00:46:30.746Z,15.90
2019-04-21T00:49:01.327Z,15.90
2019-04-21T00:51:40.686Z,18.33
2019-04-21T00:54:04.073Z,17.37
2019-04-21T00:56:27.526Z,16.10
2019-04-21T00:58:59.921Z,17.17
2019-04-21T01:01:27.978Z,16.80
2019-04-21T01:03:53.356Z,17.53
2019-04-21T01:06:22.644Z,15.80
2019-04-21T01:08:48.121Z,16.13
2019-04-21T01:11:16.507Z,15.30
2019-04-21T01:13:44.032Z,15.80
2019-04-21T01:16:12.637Z,15.53
2019-04-21T01:18:32.892Z,14.83
2019-04-21T01:20:41.922Z,15.73
2019-04-21T01:23:10.459Z,14.97
2019-04-21T01:25:44.524Z,15.27
2019-04-21T01:28:21.472Z,15.40
2019-04-21T01:30:53.469Z,15.77
2019-04-21T01:33:21.616Z,14.87
2019-04-21T01:35:48.209Z,14.40
2019-04-21T01:38:35.684Z,14.57
2019-04-21T01:40:59.406Z,15.27
2019-04-21T01:43:07.629Z,14.13
2019-04-21T01:45:37.063Z,13.77
2019-04-21T01:48:01.312Z,14.37
2019-04-21T01:50:31.591Z,13.83
2019-04-21T01:53:02.350Z,14.40
2019-04-21T01:55:41.919Z,13.60
2019-04-21T01:58:00.406Z,13.37
2019-04-21T02:00:21.233Z,14.40
2019-04-21T02:02:59.488Z,13.27
2019-04-21T02:05:31.084Z,14.00
2019-04-21T02:07:50.844Z,13.53
2019-04-21T02:10:32.178Z,14.50
2019-04-21T02:12:48.382Z,13.83
2019-04-21T02:15:16.972Z,13.47
2019-04-21T02:17:45.266Z,14.53
2019-04-21T02:20:03.905Z,13.63
2019-04-21T02:23:10.048Z,12.80
2019-04-21T02:25:08.395Z,13.63
2019-04-21T02:27:36.491Z,13.77
2019-04-21T02:30:14.601Z,14.17
2019-04-21T02:35:13.656Z,13.80
2019-04-21T02:37:53.548Z,13.73
2019-04-21T02:40:04.664Z,12.87
2019-04-21T02:42:31.984Z,13.40
2019-04-21T02:45:03.848Z,14.00
2019-04-21T02:47:43.173Z,13.00
2019-04-21T02:50:04.914Z,12.80
2019-04-21T02:52:27.386Z,13.13
2019-04-21T02:57:17.563Z,12.50
2019-04-21T02:59:42.473Z,13.63
2019-04-21T03:02:35.132Z,14.00
2019-04-21T03:04:53.369Z,13.43
2019-04-21T03:09:51.209Z,12.50
2019-04-21T03:12:17.656Z,13.50
2019-04-21T03:17:23.890Z,13.33
2019-04-21T03:24:53.926Z,13.60
2019-04-21T03:37:16.133Z,13.63
2019-04-21T03:39:30.967Z,13.87
2019-04-21T03:42:04.547Z,14.10
2019-04-21T03:46:53.071Z,12.87
2019-04-21T03:49:19.274Z,14.30
2019-04-21T03:54:13.720Z,13.43
2019-04-21T04:01:40.386Z,13.17
2019-04-21T04:04:20.208Z,14.30
2019-04-21T04:06:45.008Z,14.50
2019-04-21T04:09:30.029Z,14.17
2019-04-21T04:12:01.105Z,13.57
2019-04-21T04:17:08.826Z,14.10
2019-04-21T04:19:18.485Z,14.63
2019-04-21T04:24:11.033Z,13.93
2019-04-21T04:31:39.980Z,14.57
2019-04-21T04:34:16.722Z,13.73
2019-04-21T04:36:35.995Z,13.93
2019-04-21T04:39:27.519Z,13.07
2019-04-21T04:42:07.295Z,12.87
2019-04-21T04:44:39.467Z,13.83
2019-04-21T04:47:03.527Z,14.63
2019-04-21T04:49:34.343Z,13.20
2019-04-21T04:51:56.707Z,13.93
2019-04-21T04:54:19.866Z,14.47
2019-04-21T04:56:47.741Z,14.10
2019-04-21T05:01:42.756Z,13.23
2019-04-21T05:13:55.804Z,14.90
2019-04-21T05:16:24.361Z,13.57
2019-04-21T05:18:52.904Z,13.57
2019-04-21T05:21:25.051Z,12.93
2019-04-21T05:23:32.613Z,13.33
2019-04-21T05:25:54.397Z,14.00
2019-04-21T05:28:19.778Z,13.10
2019-04-21T05:31:06.653Z,13.80
2019-04-21T05:33:27.673Z,14.60
2019-04-21T05:36:09.431Z,14.07
2019-04-21T05:38:45.865Z,14.07
2019-04-21T05:41:06.767Z,14.30
2019-04-21T05:43:43.702Z,14.30
2019-04-21T05:46:14.277Z,14.23
2019-04-21T05:48:51.872Z,14.03
2019-04-21T05:51:20.526Z,14.30
2019-04-21T05:53:52.089Z,14.13
2019-04-21T05:56:27.240Z,13.93
2019-04-21T05:58:43.677Z,15.57
2019-04-21T06:01:23.806Z,15.23
2019-04-21T06:03:54.966Z,14.23
2019-04-21T06:06:22.084Z,14.33
2019-04-21T06:08:52.484Z,14.50
2019-04-21T06:11:14.810Z,14.60
2019-04-21T06:13:43.791Z,14.93
2019-04-21T06:16:11.537Z,14.43
2019-04-21T06:20:59.493Z,14.37
2019-04-21T06:23:35.084Z,13.57
2019-04-21T06:26:14.762Z,15.00
2019-04-21T06:28:31.780Z,14.50
2019-04-21T06:30:59.301Z,14.30
2019-04-21T06:33:19.676Z,15.33
2019-04-21T06:35:58.882Z,14.03
2019-04-21T06:38:13.224Z,13.30
2019-04-21T06:40:46.245Z,14.47
2019-04-21T06:43:20.947Z,14.50
2019-04-21T06:45:40.154Z,14.27
2019-04-21T06:48:06.310Z,14.47
2019-04-21T06:50:30.227Z,14.90
2019-04-21T06:53:11.907Z,14.27
2019-04-21T06:55:26.834Z,14.93
2019-04-21T06:57:56.101Z,15.60
2019-04-21T07:00:23.060Z,15.43
2019-04-21T07:02:54.885Z,16.07
2019-04-21T07:05:17.104Z,15.90
2019-04-21T07:07:43.318Z,15.63
2019-04-21T07:10:10.284Z,15.30
2019-04-21T07:12:33.633Z,16.87
2019-04-21T07:15:03.474Z,16.10
2019-04-21T07:17:45.423Z,16.03
2019-04-21T07:20:00.156Z,16.17
2019-04-21T07:22:32.383Z,17.17
2019-04-21T07:24:57.116Z,17.30
2019-04-21T07:27:23.920Z,16.67
2019-04-21T07:29:55.041Z,17.07
2019-04-21T07:32:14.044Z,15.87
2019-04-21T07:34:46.159Z,17.57
2019-04-21T07:37:06.018Z,18.20
2019-04-21T07:39:33.953Z,18.17
2019-04-21T07:41:59.530Z,17.37
2019-04-21T07:44:29.127Z,17.77
2019-04-21T07:46:54.212Z,17.23
2019-04-21T07:49:40.183Z,18.03
2019-04-21T07:52:22.150Z,17.27
2019-04-21T07:55:01.628Z,17.23
2019-04-21T07:57:13.848Z,17.30
2019-04-21T07:59:56.534Z,17.53
2019-04-21T08:02:09.041Z,17.13
2019-04-21T08:07:06.335Z,17.60
2019-04-21T08:09:33.028Z,16.77
2019-04-21T08:12:00.382Z,16.30
2019-04-21T08:14:28.660Z,17.73
2019-04-21T08:16:57.672Z,17.67
2019-04-21T08:19:26.286Z,18.13
2019-04-21T08:21:57.607Z,17.23
2019-04-21T08:24:21.607Z,16.27
2019-04-21T08:26:51.554Z,17.80
2019-04-21T08:29:28.512Z,18.60
2019-04-21T08:31:50.669Z,17.27
2019-04-21T08:34:14.111Z,17.47
2019-04-21T08:36:33.925Z,18.50
2019-04-21T08:39:08.709Z,17.00
2019-04-21T08:41:34.536Z,17.33
2019-04-21T08:43:56.006Z,17.27
2019-04-21T08:46:31.769Z,17.07
2019-04-21T08:48:57.980Z,18.17
2019-04-21T08:51:30.163Z,17.77
2019-04-21T08:53:57.097Z,17.40
2019-04-21T08:56:25.900Z,17.53
2019-04-21T08:58:52.522Z,17.93
2019-04-21T09:01:23.931Z,17.77
2019-04-21T09:03:51.672Z,17.65
2019-04-21T09:06:27.873Z,18.10
2019-04-21T09:08:46.001Z,17.60
2019-04-21T09:11:12.811Z,17.62
2019-04-21T09:13:37.026Z,16.55
2019-04-21T09:16:06.691Z,16.17
2019-04-21T09:18:29.863Z,16.37
2019-04-21T09:21:06.127Z,17.02
2019-04-21T09:23:28.813Z,16.27
2019-04-21T09:25:57.345Z,17.62
2019-04-21T09:28:22.661Z,16.67
2019-04-21T09:30:39.590Z,16.42
2019-04-21T09:33:03.440Z,17.67
2019-04-21T09:35:29.172Z,16.57
2019-04-21T09:38:02.761Z,15.80
2019-04-21T09:40:30.118Z,17.08
2019-04-21T09:42:58.637Z,16.98
2019-04-21T09:45:22.134Z,16.12
2019-04-21T09:47:55.739Z,17.02
2019-04-21T09:50:13.506Z,16.17
2019-04-21T09:52:47.662Z,16.10
2019-04-21T09:55:14.006Z,17.37
2019-04-21T09:57:43.125Z,17.77
2019-04-21T10:00:11.659Z,16.90
2019-04-21T10:02:39.962Z,17.47
2019-04-21T10:04:59.406Z,17.17
2019-04-21T10:07:31.654Z,16.77
2019-04-21T10:09:53.043Z,17.07
2019-04-21T10:12:20.536Z,17.40
2019-04-21T10:14:49.367Z,16.33
2019-04-21T10:17:24.727Z,17.40
2019-04-21T10:19:52.852Z,16.93
2019-04-21T10:22:21.017Z,16.90
2019-04-21T10:24:47.192Z,17.87
2019-04-21T10:27:14.862Z,17.13
2019-04-21T10:29:44.613Z,16.77
2019-04-21T10:32:09.674Z,17.03
2019-04-21T10:34:37.196Z,16.70
2019-04-21T10:37:04.940Z,16.40
2019-04-21T10:39:32.148Z,15.83
2019-04-21T10:41:59.649Z,17.80
2019-04-21T10:44:27.370Z,17.30
2019-04-21T10:46:55.905Z,17.10
2019-04-21T10:49:22.531Z,17.30
2019-04-21T10:51:50.747Z,17.53
2019-04-21T10:54:17.889Z,16.07
2019-04-21T10:56:46.111Z,16.93
2019-04-21T10:59:12.152Z,15.73
2019-04-21T11:01:39.510Z,16.13
2019-04-21T11:04:15.978Z,16.67
2019-04-21T11:06:34.734Z,16.50
2019-04-21T11:09:04.828Z,16.20
2019-04-21T11:11:30.177Z,16.70
2019-04-21T11:13:56.998Z,16.10
2019-04-21T11:16:24.443Z,15.90
2019-04-21T11:18:51.901Z,14.97
2019-04-21T11:21:20.750Z,16.10
2019-04-21T11:23:48.023Z,16.33
2019-04-21T11:26:14.342Z,15.67
2019-04-21T11:28:43.035Z,15.80
2019-04-21T11:31:10.967Z,16.03
2019-04-21T11:33:37.624Z,15.93
2019-04-21T11:36:04.346Z,14.97
2019-04-21T11:38:51.334Z,15.20
2019-04-21T11:41:03.423Z,14.77
2019-04-21T11:43:30.810Z,15.27
2019-04-21T11:45:58.150Z,14.30
2019-04-21T11:48:28.335Z,15.73
2019-04-21T11:50:55.188Z,14.37
2019-04-21T11:53:23.158Z,13.20
2019-04-21T11:55:52.071Z,13.80
2019-04-21T11:58:18.144Z,12.57
2019-04-21T12:00:45.404Z,13.37
2019-04-21T12:03:15.236Z,13.87
2019-04-21T12:05:41.354Z,14.70
2019-04-21T12:08:21.182Z,12.20
2019-04-21T12:10:35.531Z,11.97
2019-04-21T12:13:05.551Z,11.17
2019-04-21T12:15:31.291Z,11.70
2019-04-21T12:17:57.426Z,10.03
2019-04-21T12:20:24.885Z,10.50
2019-04-21T12:22:52.927Z,9.63
2019-04-21T12:25:27.140Z,11.73
2019-04-21T12:27:54.119Z,10.13
2019-04-21T12:30:21.848Z,9.77
2019-04-21T12:32:58.080Z,8.47
2019-04-21T12:35:25.815Z,8.10
2019-04-21T12:37:53.179Z,8.27
2019-04-21T12:40:20.675Z,9.10
2019-04-21T12:42:46.875Z,9.50
2019-04-21T12:45:15.195Z,8.93
2019-04-21T12:47:41.966Z,8.33
2019-04-21T12:50:10.779Z,10.50
2019-04-21T12:52:37.873Z,9.90
2019-04-21T12:55:04.270Z,9.43
2019-04-21T12:57:33.230Z,10.80
2019-04-21T13:00:00.400Z,9.50
2019-04-21T13:02:27.442Z,9.60
2019-04-21T13:04:54.603Z,9.70
2019-04-21T13:07:21.751Z,10.33
2019-04-21T13:09:50.381Z,8.83
2019-04-21T13:12:17.310Z,9.60
2019-04-21T13:14:44.145Z,10.10
2019-04-21T13:17:11.598Z,10.33
2019-04-21T13:19:39.092Z,9.17
2019-04-21T13:22:07.807Z,10.03
2019-04-21T13:24:34.024Z,9.47
2019-04-21T13:27:03.233Z,9.13
2019-04-21T13:29:30.188Z,9.90
2019-04-21T13:31:56.491Z,9.77
2019-04-21T13:34:24.190Z,9.27
2019-04-21T13:36:51.791Z,9.30
2019-04-21T13:39:53.637Z,9.13
2019-04-21T13:42:02.813Z,10.07
2019-04-21T13:44:20.008Z,9.67
2019-04-21T13:46:47.337Z,10.47
2019-04-21T13:49:14.556Z,9.83
2019-04-21T13:51:42.073Z,9.20
2019-04-21T13:54:09.655Z,9.10
2019-04-21T13:56:38.447Z,9.80
2019-04-21T13:59:04.530Z,9.40
2019-04-21T14:01:32.007Z,10.20
2019-04-21T14:03:59.676Z,9.23
2019-04-21T14:06:26.952Z,8.97
2019-04-21T14:08:54.738Z,9.77
2019-04-21T14:11:22.970Z,9.87
2019-04-21T14:13:50.390Z,8.77
2019-04-21T14:16:18.125Z,8.60
2019-04-21T14:18:45.502Z,8.43
2019-04-21T14:21:11.783Z,8.77
2019-04-21T14:23:45.509Z,8.50
2019-04-21T14:26:06.739Z,9.00
2019-04-21T14:28:34.212Z,9.10
2019-04-21T14:31:02.237Z,9.30
2019-04-21T14:33:29.876Z,9.63
2019-04-21T14:35:56.936Z,8.07
2019-04-21T14:38:24.899Z,8.70
2019-04-21T14:40:52.397Z,8.07
2019-04-21T14:43:20.447Z,8.67
2019-04-21T14:45:58.980Z,8.90
2019-04-21T14:48:45.280Z,8.33
2019-04-21T14:51:27.102Z,8.63
2019-04-21T14:53:54.303Z,9.33
2019-04-21T14:56:21.754Z,8.00
2019-04-21T14:58:49.255Z,7.77
2019-04-21T15:01:17.780Z,7.90
2019-04-21T15:03:44.166Z,7.47
2019-04-21T15:06:11.727Z,8.10
2019-04-21T15:08:39.491Z,7.83
2019-04-21T15:11:07.094Z,8.83
2019-04-21T15:13:35.390Z,8.43
2019-04-21T15:16:02.745Z,7.83
2019-04-21T15:18:30.330Z,9.27
2019-04-21T15:20:57.374Z,8.53
2019-04-21T15:23:26.324Z,7.60
2019-04-21T15:25:52.351Z,7.63
2019-04-21T15:28:20.112Z,8.27
2019-04-21T15:30:47.068Z,7.87
2019-04-21T15:33:13.990Z,8.63
2019-04-21T15:35:42.835Z,8.07
2019-04-21T15:38:09.769Z,7.77
2019-04-21T15:40:44.583Z,7.67
2019-04-21T15:43:04.442Z,7.83
2019-04-21T15:45:32.599Z,8.30
2019-04-21T15:48:00.191Z,7.60
2019-04-21T15:50:27.981Z,7.97
2019-04-21T15:52:54.192Z,7.73
2019-04-21T15:55:41.212Z,7.50
2019-04-21T15:58:07.482Z,7.27
2019-04-21T16:00:44.687Z,7.20
2019-04-21T16:03:11.193Z,7.43
2019-04-21T16:05:38.648Z,7.13
2019-04-21T16:08:06.178Z,7.33
2019-04-21T16:10:42.991Z,6.97
2019-04-21T16:13:01.561Z,6.70
2019-04-21T16:15:28.687Z,7.50
2019-04-21T16:17:57.211Z,7.37
2019-04-21T16:20:24.046Z,6.63
2019-04-21T16:22:52.660Z,6.90
2019-04-21T16:25:18.888Z,6.93
2019-04-21T16:27:46.066Z,7.47
2019-04-21T16:30:13.576Z,7.20
2019-04-21T16:32:42.006Z,7.30
2019-04-21T16:35:11.159Z,7.10
2019-04-21T16:37:37.324Z,6.80
2019-04-21T16:40:03.479Z,6.63
2019-04-21T16:42:32.006Z,7.53
2019-04-21T16:44:58.936Z,6.27
2019-04-21T16:47:26.189Z,7.00
2019-04-21T16:49:53.912Z,6.50
2019-04-21T16:52:27.987Z,6.70
2019-04-21T16:54:54.176Z,6.50
2019-04-21T16:57:28.019Z,6.73
2019-04-21T16:59:54.880Z,6.80
2019-04-21T17:02:22.796Z,6.87
2019-04-21T17:04:49.720Z,6.37
2019-04-21T17:07:18.032Z,6.77
2019-04-21T17:09:44.670Z,6.70
2019-04-21T17:12:14.642Z,6.00
2019-04-21T17:14:53.947Z,6.63
2019-04-21T17:17:32.650Z,6.93
2019-04-21T17:19:41.813Z,6.30
2019-04-21T17:22:01.886Z,6.80
2019-04-21T17:24:30.618Z,6.30
2019-04-21T17:26:57.422Z,6.73
2019-04-21T17:29:24.959Z,6.73
2019-04-21T17:31:52.946Z,6.63
2019-04-21T17:34:22.984Z,6.33
2019-04-21T17:36:47.276Z,6.97
2019-04-21T17:39:13.869Z,7.00
2019-04-21T17:41:55.978Z,6.90
2019-04-21T17:44:08.867Z,7.47
2019-04-21T17:46:45.561Z,7.23
2019-04-21T17:49:03.556Z,8.00
2019-04-21T17:51:35.161Z,7.77
2019-04-21T17:54:17.594Z,7.33
2019-04-21T17:59:43.237Z,7.40
2019-04-21T18:01:54.658Z,7.67
2019-04-21T18:04:22.837Z,7.80
2019-04-21T18:06:59.350Z,7.73
2019-04-21T18:09:42.076Z,6.83
2019-04-21T18:12:01.486Z,7.47
2019-04-21T18:14:09.515Z,7.07
2019-04-21T18:16:41.779Z,7.00
2019-04-21T18:19:04.681Z,7.00
2019-04-21T18:21:51.480Z,8.07
2019-04-21T18:24:17.787Z,7.63
2019-04-21T18:26:47.978Z,7.93
2019-04-21T18:29:05.632Z,7.70
2019-04-21T18:31:40.113Z,8.87
2019-04-21T18:34:11.081Z,7.70
2019-04-21T18:36:38.042Z,7.80
2019-04-21T18:39:21.599Z,7.33
2019-04-21T18:42:02.798Z,9.83
2019-04-21T18:44:33.224Z,9.23
2019-04-21T18:47:16.952Z,9.10
2019-04-21T18:49:24.962Z,9.93
2019-04-21T18:52:08.083Z,8.90
2019-04-21T18:54:53.916Z,9.03
2019-04-21T18:57:08.182Z,8.50
2019-04-21T18:59:33.712Z,9.30
2019-04-21T19:02:02.017Z,8.30
2019-04-21T19:04:25.599Z,8.63
2019-04-21T19:07:02.970Z,8.93
2019-04-21T19:09:54.744Z,9.53
2019-04-21T19:12:05.225Z,8.10
2019-04-21T19:17:11.065Z,9.37
2019-04-21T19:22:00.129Z,9.53
2019-04-21T19:27:08.165Z,9.83
2019-04-21T19:29:24.060Z,9.17
2019-04-21T19:31:46.637Z,9.10
2019-04-21T19:34:02.546Z,9.37
2019-04-21T19:36:21.537Z,8.90
2019-04-21T19:38:58.645Z,8.33
2019-04-21T19:41:32.364Z,8.67
2019-04-21T19:44:03.647Z,8.10
2019-04-21T19:46:27.620Z,8.33
2019-04-21T19:49:00.966Z,8.13
2019-04-21T19:51:22.191Z,8.30
2019-04-21T19:53:45.475Z,8.43
2019-04-21T19:56:00.623Z,8.63
2019-04-21T19:58:36.105Z,8.93
2019-04-21T20:00:57.378Z,8.03
2019-04-21T20:03:24.141Z,8.90
2019-04-21T20:06:00.193Z,8.77
2019-04-21T20:08:32.831Z,9.67
2019-04-21T20:11:03.897Z,10.67
2019-04-21T20:13:45.319Z,10.83
2019-04-21T20:16:03.828Z,9.83
2019-04-21T20:18:20.992Z,10.17
2019-04-21T20:20:35.284Z,9.47
2019-04-21T20:23:03.054Z,9.53
2019-04-21T20:25:34.422Z,9.20
2019-04-21T20:28:03.705Z,10.30
2019-04-21T20:30:42.500Z,9.80
2019-04-21T20:33:36.976Z,9.90
2019-04-21T20:35:46.575Z,10.07
2019-04-21T20:38:04.764Z,10.47
2019-04-21T20:40:25.083Z,10.83
2019-04-21T20:43:07.431Z,11.13
2019-04-21T20:47:43.309Z,11.73
2019-04-21T20:50:19.655Z,11.53
2019-04-21T20:52:56.171Z,11.50
2019-04-21T20:55:14.489Z,11.93
2019-04-21T20:57:41.854Z,11.57
2019-04-21T21:00:12.279Z,12.03
2019-04-21T21:02:47.015Z,12.60
2019-04-21T21:05:00.695Z,12.87
2019-04-21T21:07:44.190Z,12.60
2019-04-21T21:10:04.920Z,13.00
2019-04-21T21:12:37.289Z,13.73
2019-04-21T21:14:55.476Z,13.60
2019-04-21T21:17:44.168Z,14.87
2019-04-21T21:19:59.710Z,12.83
2019-04-21T21:22:14.183Z,15.83
2019-04-21T21:24:53.250Z,14.23
2019-04-21T21:27:15.909Z,12.43
2019-04-21T21:29:47.550Z,12.70
2019-04-21T21:32:16.821Z,12.43
2019-04-21T21:37:15.792Z,13.87
2019-04-21T21:39:43.889Z,12.87
2019-04-21T21:41:51.032Z,13.13
2019-04-21T21:44:17.870Z,13.20
2019-04-21T21:46:53.856Z,14.53
2019-04-21T21:49:26.160Z,15.57
2019-04-21T21:51:42.895Z,15.63
2019-04-21T21:54:03.046Z,14.67
2019-04-21T21:56:29.838Z,15.77
2019-04-21T21:59:00.726Z,14.87
2019-04-21T22:01:33.236Z,15.47
2019-04-21T22:03:59.112Z,15.13
2019-04-21T22:06:23.978Z,15.57
2019-04-21T22:08:48.304Z,14.37
2019-04-21T22:11:15.868Z,14.67
2019-04-21T22:13:51.232Z,14.47
2019-04-21T22:16:13.974Z,14.23
2019-04-21T22:19:03.475Z,13.67
2019-04-21T22:21:14.302Z,14.33
2019-04-21T22:23:43.835Z,14.27
2019-04-21T22:26:01.027Z,15.00
2019-04-21T22:28:27.565Z,15.60
2019-04-21T22:30:55.142Z,14.17
2019-04-21T22:33:23.278Z,15.33
2019-04-21T22:35:54.301Z,14.93
2019-04-21T22:38:31.065Z,16.03
2019-04-21T22:40:58.978Z,15.07
2019-04-21T22:43:21.647Z,15.97
2019-04-21T22:45:39.007Z,15.90
2019-04-21T22:48:13.615Z,15.90
2019-04-21T22:50:34.897Z,15.87
2019-04-21T22:53:04.769Z,15.50
2019-04-21T22:55:31.628Z,14.47
2019-04-21T22:57:58.693Z,15.53
2019-04-21T23:00:24.047Z,15.10
2019-04-21T23:02:53.955Z,15.30
2019-04-21T23:05:22.567Z,15.83
2019-04-21T23:07:50.273Z,16.40
2019-04-21T23:10:13.623Z,15.43
2019-04-21T23:12:42.613Z,15.93
2019-04-21T23:15:13.515Z,15.67
2019-04-21T23:17:53.252Z,16.63
2019-04-21T23:20:25.664Z,16.40
2019-04-21T23:22:58.362Z,15.53
2019-04-21T23:25:17.868Z,16.30
2019-04-21T23:27:46.993Z,16.07
2019-04-21T23:30:19.774Z,15.53
2019-04-21T23:32:34.085Z,16.43
2019-04-21T23:34:49.254Z,16.73
2019-04-21T23:37:20.237Z,16.67
2019-04-21T23:39:43.564Z,16.87
2019-04-21T23:42:11.219Z,15.90
2019-04-21T23:44:42.816Z,16.73
2019-04-21T23:47:10.223Z,16.87
2019-04-21T23:49:43.009Z,17.13
2019-04-21T23:52:04.678Z,15.23
2019-04-21T23:54:28.905Z,16.00
2019-04-21T23:56:55.928Z,16.97
2019-04-21T23:59:22.704Z,16.43
